Time;durP1;ratioP1;P1;durP2;ratioP2;P2;SDS_P1;SDS_P2;PMS_P1;PMS_P2;Temp;Humidity;BMP_temperature;BMP_pressure;BME280_temperature;BME280_humidity;BME280_pressure;Samples;Min_cycle;Max_cycle;Signal;HPM_P1;HPM_P2
2023/12/19 00:01:27;;;;;;;53.45;33.10;;;;;;;;;;5079325;28;20044;-84
2023/12/19 00:03:53;;;;;;;78.35;43.05;;;;;;;;;;5096126;28;20133;-84
2023/12/19 00:06:19;;;;;;;65.97;40.00;;;;;;;;;;5062611;28;20051;-84
2023/12/19 00:08:45;;;;;;;60.42;39.75;;;;;;;;;;5080109;28;20047;-84
2023/12/19 00:11:11;;;;;;;65.22;40.60;;;;;;;;;;5079121;28;20541;-84
2023/12/19 00:13:37;;;;;;;61.70;35.50;;;;;;;;;;5079255;28;20384;-84
2023/12/19 00:16:03;;;;;;;56.03;36.45;;;;;;;;;;5096701;28;20399;-84
2023/12/19 00:18:30;;;;;;;56.50;35.85;;;;;;;;;;5078889;28;20135;-84
2023/12/19 00:20:56;;;;;;;55.60;37.03;;;;;;;;;;5079214;28;20133;-84
2023/12/19 00:23:23;;;;;;;50.20;33.10;;;;;;;;;;5063096;28;20544;-84
2023/12/19 00:25:49;;;;;;;62.40;37.38;;;;;;;;;;5095739;28;20093;-84
2023/12/19 00:28:15;;;;;;;53.20;35.00;;;;;;;;;;5078947;28;20070;-84
2023/12/19 00:30:41;;;;;;;52.92;34.05;;;;;;;;;;5079041;28;20052;-84
2023/12/19 00:33:07;;;;;;;45.95;32.30;;;;;;;;;;5094996;28;20051;-84
2023/12/19 00:35:33;;;;;;;55.30;35.55;;;;;;;;;;5095398;28;20084;-84
2023/12/19 00:37:59;;;;;;;49.70;31.83;;;;;;;;;;5095494;28;20051;-84
2023/12/19 00:40:25;;;;;;;49.78;34.35;;;;;;;;;;5078474;28;20047;-84
2023/12/19 00:42:51;;;;;;;44.42;32.03;;;;;;;;;;5062261;28;20392;-84
2023/12/19 00:45:17;;;;;;;50.00;32.80;;;;;;;;;;5095360;28;20047;-84
2023/12/19 00:47:44;;;;;;;44.63;30.17;;;;;;;;;;5078351;28;20052;-84
2023/12/19 00:50:10;;;;;;;52.42;34.53;;;;;;;;;;5078160;28;20055;-84
2023/12/19 00:52:36;;;;;;;46.35;32.10;;;;;;;;;;5078229;28;20047;-84
2023/12/19 00:55:02;;;;;;;46.05;31.85;;;;;;;;;;5061392;28;20062;-84
2023/12/19 00:57:28;;;;;;;46.35;31.63;;;;;;;;;;5078402;28;20403;-84
2023/12/19 00:59:54;;;;;;;39.55;29.30;;;;;;;;;;5078351;28;20071;-84
2023/12/19 01:02:20;;;;;;;45.70;31.13;;;;;;;;;;5061079;28;20055;-84
2023/12/19 01:04:46;;;;;;;38.42;28.92;;;;;;;;;;5061250;28;20051;-84
2023/12/19 01:07:12;;;;;;;40.65;29.67;;;;;;;;;;5094953;28;20056;-84
2023/12/19 01:09:38;;;;;;;38.72;28.02;;;;;;;;;;5078032;28;20079;-84
2023/12/19 01:12:04;;;;;;;42.67;29.02;;;;;;;;;;5078080;28;20063;-84
2023/12/19 01:14:30;;;;;;;38.38;27.83;;;;;;;;;;5078006;28;20047;-84
2023/12/19 01:16:57;;;;;;;43.97;29.83;;;;;;;;;;5094656;28;20100;-85
2023/12/19 01:19:24;;;;;;;36.33;27.13;;;;;;;;;;5061351;28;20094;-84
2023/12/19 01:21:50;;;;;;;38.67;27.42;;;;;;;;;;5094726;28;20044;-84
2023/12/19 01:24:16;;;;;;;38.75;29.05;;;;;;;;;;5094427;28;20133;-84
2023/12/19 01:26:43;;;;;;;38.88;29.67;;;;;;;;;;5077800;28;20126;-84
2023/12/19 01:29:09;;;;;;;39.88;29.20;;;;;;;;;;5077928;28;20131;-84
2023/12/19 01:31:36;;;;;;;40.13;29.83;;;;;;;;;;5077751;28;20097;-84
2023/12/19 01:34:02;;;;;;;35.90;28.25;;;;;;;;;;5094325;28;20048;-84
2023/12/19 01:36:28;;;;;;;39.13;29.20;;;;;;;;;;5060908;28;20052;-84
2023/12/19 01:38:54;;;;;;;38.65;28.42;;;;;;;;;;5077380;28;20084;-85
2023/12/19 01:41:22;;;;;;;36.03;26.88;;;;;;;;;;5077495;28;20365;-85
2023/12/19 01:43:48;;;;;;;34.65;26.58;;;;;;;;;;5060844;28;20093;-85
2023/12/19 01:46:16;;;;;;;38.53;29.17;;;;;;;;;;5077434;28;20075;-84
2023/12/19 01:48:42;;;;;;;35.00;27.77;;;;;;;;;;5093885;28;20472;-84
2023/12/19 01:51:12;;;;;;;36.80;27.05;;;;;;;;;;5077278;28;20052;-85
2023/12/19 01:53:38;;;;;;;32.65;26.40;;;;;;;;;;5093880;28;20047;-85
2023/12/19 01:56:05;;;;;;;35.92;26.60;;;;;;;;;;5060314;28;20082;-85
2023/12/19 01:58:31;;;;;;;32.17;26.27;;;;;;;;;;5093819;28;20091;-85
2023/12/19 02:00:58;;;;;;;38.20;27.38;;;;;;;;;;5060492;28;20089;-85
2023/12/19 02:03:24;;;;;;;33.78;25.88;;;;;;;;;;5093593;28;20618;-85
2023/12/19 02:05:51;;;;;;;37.88;27.17;;;;;;;;;;5076908;28;20077;-85
2023/12/19 02:08:17;;;;;;;38.67;27.60;;;;;;;;;;5093784;28;20429;-85
2023/12/19 02:10:44;;;;;;;33.30;25.90;;;;;;;;;;5077040;28;20373;-85
2023/12/19 02:13:10;;;;;;;36.67;27.13;;;;;;;;;;5076759;28;20048;-85
2023/12/19 02:15:36;;;;;;;29.90;22.85;;;;;;;;;;5076017;28;20047;-85
2023/12/19 02:18:15;;;;;;;32.75;24.35;;;;;;;;;;5059853;28;20546;-85
2023/12/19 02:20:44;;;;;;;34.97;26.45;;;;;;;;;;5076546;28;20143;-85
2023/12/19 02:23:11;;;;;;;28.00;21.38;;;;;;;;;;5076480;28;20483;-85
2023/12/19 02:25:37;;;;;;;33.70;25.23;;;;;;;;;;5076740;28;20044;-85
2023/12/19 02:28:04;;;;;;;31.30;25.23;;;;;;;;;;5076541;28;20322;-85
2023/12/19 02:30:30;;;;;;;33.70;24.63;;;;;;;;;;5093222;28;20548;-85
2023/12/19 02:32:58;;;;;;;30.05;24.58;;;;;;;;;;5093230;28;20472;-85
2023/12/19 02:35:24;;;;;;;34.20;24.95;;;;;;;;;;5092971;28;20048;-85
2023/12/19 02:37:50;;;;;;;32.35;22.95;;;;;;;;;;5076385;28;20056;-85
2023/12/19 02:40:16;;;;;;;29.80;22.70;;;;;;;;;;5076017;28;20048;-86
2023/12/19 02:42:43;;;;;;;32.53;24.38;;;;;;;;;;5092935;28;20047;-85
2023/12/19 02:45:11;;;;;;;28.67;22.38;;;;;;;;;;5076526;28;20047;-85
2023/12/19 02:47:38;;;;;;;28.80;20.70;;;;;;;;;;5076464;28;20074;-85
2023/12/19 02:50:04;;;;;;;31.08;22.95;;;;;;;;;;5076997;28;20043;-85
2023/12/19 02:52:30;;;;;;;31.40;23.20;;;;;;;;;;5076302;28;20550;-85
2023/12/19 02:54:56;;;;;;;29.70;22.33;;;;;;;;;;5075732;28;20482;-86
2023/12/19 02:57:22;;;;;;;29.73;22.05;;;;;;;;;;5076388;28;20408;-85
2023/12/19 02:59:48;;;;;;;27.08;21.25;;;;;;;;;;5092901;28;20040;-85
2023/12/19 03:02:14;;;;;;;28.45;21.40;;;;;;;;;;5076323;28;20106;-85
2023/12/19 03:04:40;;;;;;;27.98;21.30;;;;;;;;;;5093645;28;20054;-85
2023/12/19 03:07:07;;;;;;;28.73;21.20;;;;;;;;;;5075963;28;20502;-85
2023/12/19 03:09:33;;;;;;;27.15;21.30;;;;;;;;;;5076784;28;20135;-85
2023/12/19 03:12:03;;;;;;;25.60;19.52;;;;;;;;;;5075877;28;20059;-85
2023/12/19 03:14:30;;;;;;;24.00;18.80;;;;;;;;;;5076077;28;20085;-83
2023/12/19 03:16:56;;;;;;;20.60;16.45;;;;;;;;;;5075783;28;20480;-84
2023/12/19 03:19:22;;;;;;;23.35;18.92;;;;;;;;;;5076624;28;20134;-84
2023/12/19 03:21:48;;;;;;;22.45;18.10;;;;;;;;;;5075957;28;20102;-85
2023/12/19 03:24:14;;;;;;;25.20;18.55;;;;;;;;;;5075810;28;20052;-85
2023/12/19 03:26:40;;;;;;;21.92;17.65;;;;;;;;;;5078229;28;20051;-84
2023/12/19 03:29:06;;;;;;;21.75;18.10;;;;;;;;;;5080741;28;20047;-83
2023/12/19 03:31:32;;;;;;;23.02;18.25;;;;;;;;;;5079810;28;20091;-84
2023/12/19 03:33:58;;;;;;;22.45;17.73;;;;;;;;;;5063188;28;20039;-84
2023/12/19 03:36:24;;;;;;;21.15;17.63;;;;;;;;;;5063180;28;20056;-84
2023/12/19 03:38:50;;;;;;;21.75;18.35;;;;;;;;;;5064028;28;20055;-84
2023/12/19 03:41:16;;;;;;;20.27;15.57;;;;;;;;;;5079719;28;20483;-85
2023/12/19 03:43:42;;;;;;;21.35;16.73;;;;;;;;;;5080450;28;20479;-84
2023/12/19 03:46:09;;;;;;;24.00;18.90;;;;;;;;;;5079818;28;20058;-85
2023/12/19 03:48:35;;;;;;;23.60;18.17;;;;;;;;;;5079548;28;20139;-84
2023/12/19 03:51:01;;;;;;;22.42;19.00;;;;;;;;;;5096436;28;20055;-84
2023/12/19 03:53:27;;;;;;;23.52;18.65;;;;;;;;;;5096099;28;20051;-85
2023/12/19 03:55:54;;;;;;;24.33;18.80;;;;;;;;;;5079713;28;20059;-84
2023/12/19 03:58:20;;;;;;;27.00;20.52;;;;;;;;;;5096769;28;20186;-84
2023/12/19 04:00:48;;;;;;;22.50;17.80;;;;;;;;;;5096228;28;20052;-84
2023/12/19 04:03:14;;;;;;;25.35;18.38;;;;;;;;;;5079532;28;20087;-85
2023/12/19 04:05:40;;;;;;;23.80;17.88;;;;;;;;;;5096899;28;20055;-84
2023/12/19 04:08:06;;;;;;;23.52;18.80;;;;;;;;;;5079161;28;20122;-85
2023/12/19 04:10:32;;;;;;;16.17;13.23;;;;;;;;;;5096850;28;20048;-85
2023/12/19 04:12:58;;;;;;;19.50;15.43;;;;;;;;;;5079920;28;20097;-85
2023/12/19 04:15:24;;;;;;;19.63;16.58;;;;;;;;;;5095695;28;20044;-85
2023/12/19 04:17:50;;;;;;;22.38;15.70;;;;;;;;;;5096649;28;20044;-85
2023/12/19 04:20:16;;;;;;;18.05;13.60;;;;;;;;;;5096026;28;20059;-85
2023/12/19 04:22:43;;;;;;;18.05;14.50;;;;;;;;;;5095820;28;20051;-85
2023/12/19 04:25:09;;;;;;;18.23;14.25;;;;;;;;;;5079666;28;20040;-84
2023/12/19 04:27:36;;;;;;;16.65;12.50;;;;;;;;;;5078965;28;20055;-85
2023/12/19 04:30:02;;;;;;;20.13;14.88;;;;;;;;;;5078815;28;20134;-85
2023/12/19 04:32:28;;;;;;;20.00;14.48;;;;;;;;;;5062151;28;20048;-85
2023/12/19 04:34:54;;;;;;;19.25;14.75;;;;;;;;;;5062168;28;20472;-84
2023/12/19 04:37:21;;;;;;;18.52;14.35;;;;;;;;;;5078548;28;20048;-85
2023/12/19 04:39:47;;;;;;;17.08;15.13;;;;;;;;;;5078931;28;20188;-85
2023/12/19 04:42:17;;;;;;;19.20;14.60;;;;;;;;;;5078752;28;20087;-86
2023/12/19 04:44:44;;;;;;;18.48;15.25;;;;;;;;;;5095198;28;20487;-85
2023/12/19 04:47:10;;;;;;;22.73;17.02;;;;;;;;;;5095394;28;20094;-85
2023/12/19 04:49:37;;;;;;;19.67;16.75;;;;;;;;;;5078634;28;20066;-84
2023/12/19 04:52:03;;;;;;;20.10;17.40;;;;;;;;;;5078225;28;20048;-84
2023/12/19 04:54:29;;;;;;;24.40;18.55;;;;;;;;;;5078463;28;20047;-84
2023/12/19 04:56:56;;;;;;;24.30;17.88;;;;;;;;;;5078468;28;20056;-84
2023/12/19 04:59:22;;;;;;;24.48;17.88;;;;;;;;;;5094875;28;20446;-83
2023/12/19 05:01:48;;;;;;;21.50;16.73;;;;;;;;;;5078385;28;20079;-83
2023/12/19 05:04:14;;;;;;;20.60;17.02;;;;;;;;;;5095057;28;20109;-83
2023/12/19 05:06:41;;;;;;;26.17;17.70;;;;;;;;;;5095028;28;20044;-82
2023/12/19 05:09:08;;;;;;;20.92;16.67;;;;;;;;;;5078127;28;20097;-83
2023/12/19 05:11:34;;;;;;;20.50;16.65;;;;;;;;;;5078344;28;20407;-83
2023/12/19 05:14:00;;;;;;;20.52;15.48;;;;;;;;;;5095515;28;20036;-83
2023/12/19 05:16:26;;;;;;;22.98;17.70;;;;;;;;;;5094428;28;20041;-83
2023/12/19 05:18:52;;;;;;;21.15;16.45;;;;;;;;;;5094721;28;20048;-85
2023/12/19 05:21:20;;;;;;;23.38;18.00;;;;;;;;;;5094536;28;20051;-84
2023/12/19 05:23:47;;;;;;;20.83;15.70;;;;;;;;;;5077846;28;20131;-85
2023/12/19 05:26:13;;;;;;;19.60;16.40;;;;;;;;;;5094538;28;20086;-84
2023/12/19 05:28:40;;;;;;;21.80;16.92;;;;;;;;;;5094326;28;20052;-82
2023/12/19 05:31:07;;;;;;;22.23;15.68;;;;;;;;;;5077614;28;20058;-82
2023/12/19 05:33:34;;;;;;;21.55;16.95;;;;;;;;;;5094883;28;20056;-82
2023/12/19 05:36:01;;;;;;;15.85;13.32;;;;;;;;;;5094490;28;20040;-83
2023/12/19 05:38:27;;;;;;;19.95;14.40;;;;;;;;;;5094200;28;20047;-84
2023/12/19 05:40:57;;;;;;;19.13;14.13;;;;;;;;;;5095118;28;20047;-84
2023/12/19 05:43:23;;;;;;;15.50;13.40;;;;;;;;;;5061329;28;20416;-83
2023/12/19 05:45:50;;;;;;;20.70;14.07;;;;;;;;;;5095085;28;20084;-83
2023/12/19 05:48:16;;;;;;;16.60;13.63;;;;;;;;;;5094127;28;20048;-83
2023/12/19 05:50:42;;;;;;;17.65;12.85;;;;;;;;;;5093864;28;20048;-82
2023/12/19 05:53:09;;;;;;;12.35;11.07;;;;;;;;;;5094406;28;20052;-83
2023/12/19 05:55:35;;;;;;;14.65;10.98;;;;;;;;;;5076755;28;20082;-83
2023/12/19 05:58:01;;;;;;;14.27;11.35;;;;;;;;;;5093952;28;20097;-82
2023/12/19 06:00:27;;;;;;;14.38;11.88;;;;;;;;;;5093617;28;20496;-84
2023/12/19 06:02:53;;;;;;;14.50;10.70;;;;;;;;;;5077743;28;20101;-84
2023/12/19 06:05:20;;;;;;;16.33;12.20;;;;;;;;;;5077180;28;20086;-84
2023/12/19 06:07:46;;;;;;;13.60;10.90;;;;;;;;;;5076579;28;20560;-84
2023/12/19 06:10:13;;;;;;;13.30;10.15;;;;;;;;;;5093696;28;20087;-81
2023/12/19 06:12:39;;;;;;;12.60;10.85;;;;;;;;;;5094754;28;20105;-82
2023/12/19 06:15:08;;;;;;;12.50;10.43;;;;;;;;;;5093400;28;20138;-82
2023/12/19 06:17:35;;;;;;;15.02;11.18;;;;;;;;;;5094392;28;20048;-83
2023/12/19 06:20:01;;;;;;;11.00;9.57;;;;;;;;;;5093631;28;20075;-83
2023/12/19 06:22:27;;;;;;;10.52;8.75;;;;;;;;;;5076929;28;20499;-83
2023/12/19 06:24:53;;;;;;;13.55;11.35;;;;;;;;;;5094304;28;20388;-83
2023/12/19 06:27:20;;;;;;;11.75;9.10;;;;;;;;;;5076597;28;20396;-83
2023/12/19 06:29:46;;;;;;;9.30;8.30;;;;;;;;;;5076737;28;20539;-83
2023/12/19 06:32:12;;;;;;;10.02;8.98;;;;;;;;;;5093437;28;20506;-83
2023/12/19 06:34:38;;;;;;;10.70;9.55;;;;;;;;;;5093284;28;20488;-82
2023/12/19 06:37:04;;;;;;;10.98;9.07;;;;;;;;;;5076177;28;20656;-82
2023/12/19 06:39:30;;;;;;;9.38;8.43;;;;;;;;;;5076799;28;20044;-84
2023/12/19 06:41:56;;;;;;;15.35;10.55;;;;;;;;;;5094070;28;20372;-84
2023/12/19 06:44:22;;;;;;;8.82;7.93;;;;;;;;;;5076654;28;20093;-84
2023/12/19 06:46:51;;;;;;;10.68;8.85;;;;;;;;;;5059724;28;20044;-84
2023/12/19 06:49:18;;;;;;;10.25;9.13;;;;;;;;;;5093131;28;20052;-84
2023/12/19 06:51:44;;;;;;;11.02;9.30;;;;;;;;;;5076483;28;20056;-84
2023/12/19 06:54:10;;;;;;;10.65;8.95;;;;;;;;;;5092881;28;20089;-84
2023/12/19 06:56:36;;;;;;;11.40;8.85;;;;;;;;;;5076416;28;20054;-85
2023/12/19 06:59:03;;;;;;;10.88;9.00;;;;;;;;;;5059406;28;20612;-84
2023/12/19 07:01:30;;;;;;;12.23;10.20;;;;;;;;;;5075168;28;20051;-84
2023/12/19 07:03:56;;;;;;;10.65;9.55;;;;;;;;;;5075999;28;20055;-84
2023/12/19 07:06:23;;;;;;;12.73;9.70;;;;;;;;;;5059523;28;20047;-84
2023/12/19 07:08:50;;;;;;;10.65;9.55;;;;;;;;;;5075987;28;20044;-84
2023/12/19 07:11:16;;;;;;;11.45;9.80;;;;;;;;;;5076292;28;20048;-84
2023/12/19 07:13:43;;;;;;;10.00;8.65;;;;;;;;;;5076026;28;20074;-84
2023/12/19 07:16:19;;;;;;;11.65;9.02;;;;;;;;;;5093032;28;20040;-84
2023/12/19 07:18:45;;;;;;;9.73;8.52;;;;;;;;;;5092741;28;20476;-83
2023/12/19 07:21:24;;;;;;;11.13;9.27;;;;;;;;;;5076024;28;20044;-83
2023/12/19 07:23:50;;;;;;;10.40;8.30;;;;;;;;;;5076743;28;20135;-83
2023/12/19 07:26:20;;;;;;;11.20;8.88;;;;;;;;;;5075744;28;20484;-84
2023/12/19 07:28:47;;;;;;;9.18;8.18;;;;;;;;;;5076136;28;20101;-83
2023/12/19 07:31:25;;;;;;;9.75;8.75;;;;;;;;;;5092677;28;20047;-84
2023/12/19 07:33:55;;;;;;;9.85;7.35;;;;;;;;;;5075732;28;20097;-83
2023/12/19 07:36:21;;;;;;;10.40;7.75;;;;;;;;;;5092647;28;20127;-83
2023/12/19 07:38:47;;;;;;;6.72;6.13;;;;;;;;;;5075835;28;20044;-82
2023/12/19 07:41:13;;;;;;;8.40;7.43;;;;;;;;;;5076049;28;20044;-82
2023/12/19 07:43:39;;;;;;;8.40;6.55;;;;;;;;;;5075426;28;20083;-82
2023/12/19 07:46:06;;;;;;;8.00;7.20;;;;;;;;;;5075921;28;20044;-82
2023/12/19 07:48:32;;;;;;;9.07;6.90;;;;;;;;;;5092433;28;20388;-83
2023/12/19 07:50:58;;;;;;;7.38;6.65;;;;;;;;;;5075661;28;20055;-83
2023/12/19 07:53:28;;;;;;;7.55;6.68;;;;;;;;;;5059353;28;20083;-83
2023/12/19 07:55:54;;;;;;;6.20;5.60;;;;;;;;;;5074955;28;20052;-83
2023/12/19 07:58:20;;;;;;;7.10;6.20;;;;;;;;;;5093210;28;20094;-83
2023/12/19 08:00:48;;;;;;;6.90;6.30;;;;;;;;;;5092474;28;20178;-84
2023/12/19 08:03:15;;;;;;;6.88;6.28;;;;;;;;;;5075559;28;20189;-84
2023/12/19 08:05:47;;;;;;;6.65;6.05;;;;;;;;;;5060006;28;20055;-83
2023/12/19 08:08:13;;;;;;;7.22;6.57;;;;;;;;;;5093217;28;20048;-83
2023/12/19 08:10:39;;;;;;;7.93;6.55;;;;;;;;;;5076420;28;20075;-83
2023/12/19 08:13:05;;;;;;;6.50;5.85;;;;;;;;;;5094715;28;20048;-82
2023/12/19 08:15:31;;;;;;;6.97;6.22;;;;;;;;;;5062670;28;20044;-83
2023/12/19 08:17:57;;;;;;;7.25;6.55;;;;;;;;;;5078681;28;20059;-83
2023/12/19 08:20:24;;;;;;;7.32;6.45;;;;;;;;;;5062805;28;20044;-83
2023/12/19 08:22:50;;;;;;;7.22;6.53;;;;;;;;;;5080026;28;20083;-83
2023/12/19 08:25:16;;;;;;;6.43;5.82;;;;;;;;;;5078796;28;20060;-85
2023/12/19 08:27:42;;;;;;;6.50;5.90;;;;;;;;;;5078962;28;20135;-82
2023/12/19 08:30:09;;;;;;;6.72;6.03;;;;;;;;;;5079256;28;20051;-84
2023/12/19 08:32:35;;;;;;;7.10;6.40;;;;;;;;;;5095726;28;20048;-83
2023/12/19 08:35:02;;;;;;;7.18;6.25;;;;;;;;;;5095506;28;20075;-82
2023/12/19 08:37:29;;;;;;;7.10;6.40;;;;;;;;;;5078758;28;20052;-82
2023/12/19 08:39:57;;;;;;;6.90;6.20;;;;;;;;;;5095614;28;20091;-82
2023/12/19 08:42:23;;;;;;;7.90;6.55;;;;;;;;;;5096416;28;20071;-83
2023/12/19 08:44:54;;;;;;;7.72;6.40;;;;;;;;;;5095524;28;20048;-83
2023/12/19 08:47:21;;;;;;;8.70;7.50;;;;;;;;;;5095339;28;20048;-83
2023/12/19 08:49:47;;;;;;;7.30;6.60;;;;;;;;;;5078893;28;20051;-83
2023/12/19 08:52:13;;;;;;;7.78;6.88;;;;;;;;;;5062017;28;20056;-82
2023/12/19 08:54:40;;;;;;;8.23;7.40;;;;;;;;;;5095260;28;20543;-83
2023/12/19 08:57:06;;;;;;;8.05;7.28;;;;;;;;;;5095103;28;20060;-83
2023/12/19 08:59:32;;;;;;;8.10;7.30;;;;;;;;;;5078336;28;20055;-83
2023/12/19 09:01:58;;;;;;;8.70;7.63;;;;;;;;;;5061757;28;20114;-83
2023/12/19 09:04:24;;;;;;;8.57;7.75;;;;;;;;;;5078245;28;20044;-83
2023/12/19 09:06:51;;;;;;;9.30;8.23;;;;;;;;;;5078540;28;20460;-84
2023/12/19 09:09:17;;;;;;;8.75;7.85;;;;;;;;;;5078283;28;20091;-83
2023/12/19 09:11:43;;;;;;;10.90;8.98;;;;;;;;;;5095833;28;20051;-83
2023/12/19 09:14:13;;;;;;;9.10;8.20;;;;;;;;;;5078007;28;20047;-83
2023/12/19 09:16:39;;;;;;;9.60;8.60;;;;;;;;;;5094926;28;20523;-83
2023/12/19 09:19:05;;;;;;;9.55;8.55;;;;;;;;;;5078078;28;20094;-83
2023/12/19 09:21:31;;;;;;;10.15;8.93;;;;;;;;;;5094826;28;20472;-84
2023/12/19 09:23:57;;;;;;;11.05;9.88;;;;;;;;;;5076961;28;20097;-83
2023/12/19 09:26:23;;;;;;;14.05;11.23;;;;;;;;;;5078699;28;20062;-83
2023/12/19 09:28:49;;;;;;;10.60;9.52;;;;;;;;;;5094931;28;20083;-83
2023/12/19 09:31:16;;;;;;;11.68;10.48;;;;;;;;;;5094654;28;20113;-83
2023/12/19 09:33:42;;;;;;;10.73;9.70;;;;;;;;;;5077677;28;20392;-84
2023/12/19 09:36:09;;;;;;;11.90;10.65;;;;;;;;;;5094504;28;20441;-83
2023/12/19 09:38:36;;;;;;;11.48;10.35;;;;;;;;;;5077534;28;20051;-83
2023/12/19 09:41:02;;;;;;;11.57;10.30;;;;;;;;;;5077362;28;20051;-83
2023/12/19 09:43:33;;;;;;;13.27;11.02;;;;;;;;;;5077388;28;20400;-82
2023/12/19 09:46:02;;;;;;;12.05;10.73;;;;;;;;;;5078896;28;20052;-84
2023/12/19 09:48:36;;;;;;;13.13;11.80;;;;;;;;;;5094100;28;20129;-83
2023/12/19 09:51:03;;;;;;;14.02;12.20;;;;;;;;;;5095135;28;20384;-83
2023/12/19 09:53:33;;;;;;;14.07;12.63;;;;;;;;;;5077416;28;20056;-83
2023/12/19 09:56:00;;;;;;;16.45;13.27;;;;;;;;;;5077069;28;20056;-83
2023/12/19 09:58:28;;;;;;;13.95;12.55;;;;;;;;;;5093806;28;20040;-83
2023/12/19 10:00:57;;;;;;;16.00;13.52;;;;;;;;;;5094065;28;20151;-83
2023/12/19 10:03:23;;;;;;;15.20;12.85;;;;;;;;;;5094024;28;20054;-82
2023/12/19 10:05:49;;;;;;;15.98;13.82;;;;;;;;;;5094009;28;20072;-83
2023/12/19 10:08:15;;;;;;;16.75;14.10;;;;;;;;;;5094739;28;20366;-83
2023/12/19 10:10:57;;;;;;;16.05;13.63;;;;;;;;;;5060469;28;20086;-83
2023/12/19 10:13:33;;;;;;;15.82;13.35;;;;;;;;;;5077145;28;20055;-84
2023/12/19 10:16:04;;;;;;;16.17;14.43;;;;;;;;;;5076482;28;20456;-83
2023/12/19 10:18:30;;;;;;;18.92;15.48;;;;;;;;;;5093738;28;20048;-83
2023/12/19 10:21:09;;;;;;;16.65;14.85;;;;;;;;;;5076888;28;20048;-83
2023/12/19 10:23:36;;;;;;;19.25;15.13;;;;;;;;;;5093678;28;20051;-83
2023/12/19 10:26:03;;;;;;;20.40;15.88;;;;;;;;;;5094397;28;20044;-82
2023/12/19 10:28:32;;;;;;;18.90;16.67;;;;;;;;;;5093744;28;20388;-84
2023/12/19 10:31:15;;;;;;;18.70;15.65;;;;;;;;;;5094300;28;20387;-82
2023/12/19 10:33:50;;;;;;;19.00;15.90;;;;;;;;;;5093230;28;20051;-82
2023/12/19 10:36:27;;;;;;;19.25;16.35;;;;;;;;;;5093386;28;20407;-83
2023/12/19 10:38:54;;;;;;;19.75;15.80;;;;;;;;;;5077208;28;20172;-83
2023/12/19 10:41:22;;;;;;;21.80;17.55;;;;;;;;;;5076405;28;20498;-83
2023/12/19 10:43:49;;;;;;;18.08;15.77;;;;;;;;;;5060069;28;20117;-82
2023/12/19 10:46:17;;;;;;;19.20;16.77;;;;;;;;;;5076615;28;20400;-82
2023/12/19 10:48:43;;;;;;;19.40;16.85;;;;;;;;;;5093144;28;20420;-83
2023/12/19 10:51:12;;;;;;;19.23;16.65;;;;;;;;;;5076416;28;20043;-83
2023/12/19 10:53:38;;;;;;;19.33;17.23;;;;;;;;;;5093145;28;20043;-83
2023/12/19 10:56:08;;;;;;;19.05;15.63;;;;;;;;;;5092431;28;20427;-83
2023/12/19 10:58:36;;;;;;;18.27;16.38;;;;;;;;;;5077041;28;20446;-83
2023/12/19 11:01:04;;;;;;;23.48;16.17;;;;;;;;;;5076618;28;20040;-83
2023/12/19 11:03:34;;;;;;;24.40;17.63;;;;;;;;;;5093223;28;20044;-83
2023/12/19 11:06:02;;;;;;;19.00;15.88;;;;;;;;;;5093768;28;20133;-83
2023/12/19 11:08:29;;;;;;;21.65;17.05;;;;;;;;;;5076346;28;20075;-83
2023/12/19 11:11:11;;;;;;;19.13;16.77;;;;;;;;;;5092854;28;20102;-83
2023/12/19 11:13:41;;;;;;;16.58;14.88;;;;;;;;;;5076280;28;20052;-83
2023/12/19 11:16:18;;;;;;;19.77;16.13;;;;;;;;;;5075577;28;20071;-83
2023/12/19 11:18:47;;;;;;;20.95;16.17;;;;;;;;;;5093039;28;20388;-83
2023/12/19 11:21:18;;;;;;;19.15;16.92;;;;;;;;;;5092735;28;20458;-83
2023/12/19 11:23:47;;;;;;;16.70;14.88;;;;;;;;;;5076799;28;20059;-83
2023/12/19 11:26:24;;;;;;;20.08;16.25;;;;;;;;;;5093492;28;20048;-83
2023/12/19 11:28:50;;;;;;;19.75;15.13;;;;;;;;;;5075858;28;20048;-83
2023/12/19 11:31:32;;;;;;;17.88;15.75;;;;;;;;;;5092697;28;20040;-83
2023/12/19 11:34:18;;;;;;;17.73;15.65;;;;;;;;;;5092488;28;20484;-82
2023/12/19 11:36:44;;;;;;;16.17;14.48;;;;;;;;;;5091928;28;20044;-83
2023/12/19 11:39:26;;;;;;;16.58;14.85;;;;;;;;;;5092882;28;20044;-83
2023/12/19 11:41:52;;;;;;;21.25;16.48;;;;;;;;;;5093405;28;20059;-81
2023/12/19 11:44:34;;;;;;;19.20;17.13;;;;;;;;;;5075814;28;20051;-82
2023/12/19 11:47:16;;;;;;;19.40;16.50;;;;;;;;;;5076441;28;20388;-81
2023/12/19 11:49:43;;;;;;;20.42;16.90;;;;;;;;;;5096543;28;20047;-82
2023/12/19 11:52:30;;;;;;;21.38;18.23;;;;;;;;;;5079586;28;20075;-80
2023/12/19 11:54:56;;;;;;;19.00;16.63;;;;;;;;;;5079347;28;20040;-81
2023/12/19 11:57:22;;;;;;;20.05;16.45;;;;;;;;;;5099823;28;20052;-81
2023/12/19 11:59:52;;;;;;;18.70;16.77;;;;;;;;;;5066271;28;20488;-81
2023/12/19 12:02:31;;;;;;;20.10;16.77;;;;;;;;;;5082943;28;20047;-81
2023/12/19 12:05:12;;;;;;;20.38;16.98;;;;;;;;;;5100484;28;20052;-81
2023/12/19 12:07:48;;;;;;;19.98;17.42;;;;;;;;;;5082725;28;20115;-81
2023/12/19 12:10:23;;;;;;;20.05;17.70;;;;;;;;;;5100472;28;20138;-81
2023/12/19 12:12:49;;;;;;;18.70;16.70;;;;;;;;;;5082916;28;20204;-81
2023/12/19 12:15:18;;;;;;;23.35;18.52;;;;;;;;;;5082188;28;20491;-81
2023/12/19 12:17:45;;;;;;;20.48;18.02;;;;;;;;;;5098906;28;20051;-81
2023/12/19 12:20:11;;;;;;;24.67;19.52;;;;;;;;;;5099042;28;20047;-81
2023/12/19 12:22:37;;;;;;;20.55;18.45;;;;;;;;;;5099194;28;20094;-81
2023/12/19 12:25:04;;;;;;;19.95;17.30;;;;;;;;;;5099265;28;20054;-81
2023/12/19 12:27:32;;;;;;;19.27;17.30;;;;;;;;;;5082403;28;20039;-80
2023/12/19 12:30:00;;;;;;;19.33;17.23;;;;;;;;;;5082640;28;20368;-79
2023/12/19 12:32:26;;;;;;;19.10;17.08;;;;;;;;;;5082264;28;20051;-83
2023/12/19 12:34:55;;;;;;;19.63;17.50;;;;;;;;;;5099622;28;20039;-80
2023/12/19 12:37:21;;;;;;;19.67;17.45;;;;;;;;;;5082896;28;20043;-80
2023/12/19 12:39:48;;;;;;;20.05;17.63;;;;;;;;;;5082015;28;20047;-80
2023/12/19 12:42:20;;;;;;;21.80;19.05;;;;;;;;;;5098852;28;20538;-81
2023/12/19 12:44:46;;;;;;;19.27;17.02;;;;;;;;;;5099164;28;20047;-81
2023/12/19 12:47:23;;;;;;;22.00;17.75;;;;;;;;;;5082269;28;20063;-80
2023/12/19 12:50:00;;;;;;;18.35;15.43;;;;;;;;;;5099635;28;20137;-80
2023/12/19 12:52:26;;;;;;;17.33;15.63;;;;;;;;;;5098732;28;20459;-80
2023/12/19 12:54:59;;;;;;;17.38;15.57;;;;;;;;;;5064978;28;20040;-80
2023/12/19 12:57:25;;;;;;;16.15;14.45;;;;;;;;;;5099462;28;20047;-81
2023/12/19 12:59:51;;;;;;;16.85;15.07;;;;;;;;;;5080337;28;20132;-81
2023/12/19 13:02:17;;;;;;;18.20;16.20;;;;;;;;;;5098527;28;20048;-82
2023/12/19 13:04:43;;;;;;;19.25;16.23;;;;;;;;;;5081684;28;20048;-82
2023/12/19 13:07:09;;;;;;;17.52;15.73;;;;;;;;;;5081475;28;20075;-82
2023/12/19 13:09:35;;;;;;;17.27;15.55;;;;;;;;;;5098503;28;20053;-82
2023/12/19 13:12:02;;;;;;;16.98;15.18;;;;;;;;;;5081507;28;20058;-81
2023/12/19 13:14:28;;;;;;;16.90;15.00;;;;;;;;;;5098186;28;20044;-81
2023/12/19 13:16:54;;;;;;;15.95;14.23;;;;;;;;;;5099161;28;20155;-82
2023/12/19 13:19:21;;;;;;;15.05;13.05;;;;;;;;;;5081032;28;20040;-83
2023/12/19 13:21:47;;;;;;;16.20;14.43;;;;;;;;;;5065079;28;20050;-83
2023/12/19 13:24:13;;;;;;;15.80;13.73;;;;;;;;;;5082214;28;20045;-83
2023/12/19 13:26:39;;;;;;;15.43;13.85;;;;;;;;;;5081282;28;20054;-83
2023/12/19 13:29:08;;;;;;;15.10;13.60;;;;;;;;;;5081213;28;20044;-83
2023/12/19 13:31:34;;;;;;;14.73;13.30;;;;;;;;;;5081940;28;20044;-83
2023/12/19 13:34:01;;;;;;;13.57;12.20;;;;;;;;;;5081268;28;20051;-84
2023/12/19 13:36:27;;;;;;;15.57;13.95;;;;;;;;;;5064794;28;20472;-83
2023/12/19 13:38:54;;;;;;;15.35;13.75;;;;;;;;;;5098681;28;20156;-82
2023/12/19 13:41:20;;;;;;;14.50;13.02;;;;;;;;;;5098613;28;20107;-82
2023/12/19 13:43:46;;;;;;;19.92;14.73;;;;;;;;;;5080948;28;20052;-81
2023/12/19 13:46:12;;;;;;;15.30;13.48;;;;;;;;;;5097683;28;20547;-81
2023/12/19 13:48:39;;;;;;;16.58;13.60;;;;;;;;;;5115640;28;20048;-80
2023/12/19 13:51:05;;;;;;;13.95;12.55;;;;;;;;;;5097936;28;20132;-80
2023/12/19 13:53:31;;;;;;;13.90;12.48;;;;;;;;;;5081032;28;20051;-80
2023/12/19 13:55:57;;;;;;;14.63;12.77;;;;;;;;;;5080394;28;20063;-79
2023/12/19 13:58:23;;;;;;;12.88;11.55;;;;;;;;;;5080440;28;20089;-80
2023/12/19 14:00:54;;;;;;;13.38;11.95;;;;;;;;;;5098357;28;20046;-79
2023/12/19 14:03:20;;;;;;;11.38;10.38;;;;;;;;;;5098304;28;20083;-79
2023/12/19 14:05:46;;;;;;;11.90;10.52;;;;;;;;;;5097379;28;20101;-79
2023/12/19 14:08:15;;;;;;;9.85;9.05;;;;;;;;;;5080534;28;20446;-79
2023/12/19 14:10:42;;;;;;;9.27;8.35;;;;;;;;;;5096779;28;20126;-80
2023/12/19 14:13:09;;;;;;;9.68;8.80;;;;;;;;;;5097528;28;20055;-80
2023/12/19 14:15:35;;;;;;;10.13;8.70;;;;;;;;;;5096576;28;20050;-80
2023/12/19 14:18:03;;;;;;;8.32;7.53;;;;;;;;;;5097383;28;20123;-81
2023/12/19 14:20:30;;;;;;;9.30;8.57;;;;;;;;;;5097056;28;20498;-81
2023/12/19 14:22:57;;;;;;;9.68;8.77;;;;;;;;;;5080426;28;20449;-80